createdAt,value
2022-10-13T00:01:14.746Z,86.06
2022-10-13T00:03:43.435Z,85.97
2022-10-13T00:06:12.042Z,85.88
2022-10-13T00:08:40.329Z,85.74
2022-10-13T00:11:18.181Z,85.86
2022-10-13T00:13:47.267Z,86.01
2022-10-13T00:16:17.290Z,86.02
2022-10-13T00:18:46.051Z,86.02
2022-10-13T00:21:17.055Z,86.01
2022-10-13T00:23:45.008Z,86.12
2022-10-13T00:26:15.344Z,86.10
2022-10-13T00:28:44.751Z,86.17
2022-10-13T00:31:26.252Z,86.18
2022-10-13T00:33:54.290Z,86.17
2022-10-13T00:36:24.102Z,86.30
2022-10-13T00:38:53.316Z,86.34
2022-10-13T00:41:21.920Z,86.38
2022-10-13T00:44:01.031Z,86.38
2022-10-13T00:46:32.496Z,86.48
2022-10-13T00:49:03.228Z,86.67
2022-10-13T00:51:34.802Z,86.87
2022-10-13T00:54:04.635Z,87.14
2022-10-13T00:56:33.014Z,87.75
2022-10-13T00:59:01.874Z,87.47
2022-10-13T01:01:29.918Z,87.34
2022-10-13T01:03:57.607Z,87.30
2022-10-13T01:06:25.715Z,87.35
2022-10-13T01:08:53.383Z,87.30
2022-10-13T01:11:23.955Z,87.25
2022-10-13T01:14:01.086Z,87.16
2022-10-13T01:17:15.211Z,87.12
2022-10-13T01:20:04.644Z,87.18
2022-10-13T01:22:54.164Z,87.27
2022-10-13T01:25:43.653Z,87.25
2022-10-13T01:28:33.073Z,87.20
2022-10-13T01:31:12.124Z,87.32
2022-10-13T01:34:09.018Z,87.19
2022-10-13T01:37:08.483Z,87.28
2022-10-13T01:39:46.347Z,87.37
2022-10-13T01:42:25.797Z,87.31
2022-10-13T01:45:00.025Z,87.26
2022-10-13T01:47:28.599Z,87.03
2022-10-13T01:49:58.048Z,87.02
2022-10-13T01:52:29.162Z,86.93
2022-10-13T01:54:59.583Z,87.00
2022-10-13T01:57:36.117Z,86.92
2022-10-13T02:00:09.957Z,86.88
2022-10-13T02:03:02.446Z,86.91
2022-10-13T02:05:39.082Z,87.04
2022-10-13T02:08:18.340Z,86.93
2022-10-13T02:10:59.822Z,86.73
2022-10-13T02:13:30.560Z,86.71
2022-10-13T02:16:01.709Z,86.64
2022-10-13T02:18:35.797Z,86.71
2022-10-13T02:21:04.645Z,86.75
2022-10-13T02:23:32.812Z,86.76
2022-10-13T02:26:00.936Z,86.66
2022-10-13T02:28:29.266Z,86.74
2022-10-13T02:30:57.125Z,86.75
2022-10-13T02:33:24.774Z,86.74
2022-10-13T02:35:52.349Z,86.61
2022-10-13T02:38:20.016Z,86.65
2022-10-13T02:40:47.641Z,86.67
2022-10-13T02:43:15.260Z,86.57
2022-10-13T02:45:42.857Z,86.59
2022-10-13T02:48:10.601Z,86.55
2022-10-13T02:50:38.508Z,86.34
2022-10-13T02:53:06.103Z,86.33
2022-10-13T02:55:33.774Z,86.27
2022-10-13T02:58:01.425Z,86.25
2022-10-13T03:00:29.253Z,86.11
2022-10-13T03:02:57.336Z,86.09
2022-10-13T03:05:25.017Z,86.19
2022-10-13T03:07:52.673Z,86.14
2022-10-13T03:10:20.478Z,86.15
2022-10-13T03:12:48.280Z,86.14
2022-10-13T03:15:16.046Z,86.19
2022-10-13T03:17:44.161Z,86.31
2022-10-13T03:20:11.870Z,86.31
2022-10-13T03:22:39.553Z,86.29
2022-10-13T03:25:07.529Z,86.31
2022-10-13T03:27:35.210Z,86.31
2022-10-13T03:30:03.209Z,86.37
2022-10-13T03:32:33.637Z,86.32
2022-10-13T03:35:01.619Z,86.44
2022-10-13T03:37:31.762Z,86.48
2022-10-13T03:39:59.419Z,86.53
2022-10-13T03:42:27.080Z,86.47
2022-10-13T03:44:56.568Z,86.42
2022-10-13T03:47:25.039Z,86.44
2022-10-13T03:49:55.295Z,86.46
2022-10-13T03:52:23.974Z,86.46
2022-10-13T03:54:51.594Z,86.50
2022-10-13T03:57:19.229Z,86.52
2022-10-13T03:59:46.838Z,86.51
2022-10-13T04:02:14.657Z,86.63
2022-10-13T04:04:42.317Z,86.48
2022-10-13T04:07:09.983Z,86.55
2022-10-13T04:09:37.643Z,86.46
2022-10-13T04:12:05.657Z,86.52
2022-10-13T04:14:33.342Z,86.56
2022-10-13T04:17:00.971Z,86.64
2022-10-13T04:19:28.630Z,86.57
2022-10-13T04:21:56.218Z,86.45
2022-10-13T04:24:23.855Z,86.21
2022-10-13T04:26:51.529Z,86.08
2022-10-13T04:29:19.160Z,86.06
2022-10-13T04:31:46.830Z,85.89
2022-10-13T04:34:14.478Z,85.70
2022-10-13T04:36:42.127Z,85.75
2022-10-13T04:39:09.725Z,85.58
2022-10-13T04:41:37.367Z,85.49
2022-10-13T04:44:05.012Z,85.47
2022-10-13T04:46:32.599Z,85.57
2022-10-13T04:49:00.202Z,85.62
2022-10-13T04:51:28.048Z,85.66
2022-10-13T04:53:58.350Z,85.78
2022-10-13T04:56:26.971Z,85.84
2022-10-13T04:58:54.767Z,85.95
2022-10-13T05:01:24.760Z,85.97
2022-10-13T05:03:57.273Z,86.07
2022-10-13T05:06:27.802Z,86.04
2022-10-13T05:08:55.887Z,86.02
2022-10-13T05:11:25.349Z,86.08
2022-10-13T05:13:53.190Z,86.05
2022-10-13T05:16:22.319Z,86.06
2022-10-13T05:18:51.692Z,86.01
2022-10-13T05:21:25.278Z,86.00
2022-10-13T05:23:56.468Z,85.96
2022-10-13T05:26:30.068Z,86.03
2022-10-13T05:28:59.247Z,86.08
2022-10-13T05:31:29.549Z,86.04
2022-10-13T05:33:57.857Z,86.13
2022-10-13T05:36:32.331Z,86.18
2022-10-13T05:39:02.800Z,86.26
2022-10-13T05:41:31.830Z,86.22
2022-10-13T05:44:02.665Z,86.35
2022-10-13T05:46:30.495Z,86.25
2022-10-13T05:48:58.230Z,86.17
2022-10-13T05:51:29.433Z,86.11
2022-10-13T05:54:10.116Z,86.16
2022-10-13T05:56:42.414Z,86.19
2022-10-13T05:59:15.025Z,86.03
2022-10-13T06:01:44.392Z,86.06
2022-10-13T06:04:18.295Z,86.01
2022-10-13T06:06:46.691Z,86.02
2022-10-13T06:09:14.531Z,85.97
2022-10-13T06:11:42.321Z,86.02
2022-10-13T06:14:10.082Z,86.06
2022-10-13T06:16:38.126Z,86.06
2022-10-13T06:19:07.143Z,86.06
2022-10-13T06:21:37.926Z,86.13
2022-10-13T06:24:05.804Z,86.31
2022-10-13T06:26:33.505Z,86.30
2022-10-13T06:29:01.413Z,86.38
2022-10-13T06:31:29.579Z,86.31
2022-10-13T06:33:57.225Z,86.42
2022-10-13T06:36:24.906Z,86.28
2022-10-13T06:38:52.797Z,86.32
2022-10-13T06:41:20.448Z,86.23
2022-10-13T06:43:48.110Z,86.13
2022-10-13T06:46:15.878Z,85.97
2022-10-13T06:48:43.574Z,85.70
2022-10-13T06:51:12.950Z,85.50
2022-10-13T06:53:40.612Z,85.31
2022-10-13T06:56:09.788Z,85.13
2022-10-13T06:58:38.585Z,85.05
2022-10-13T07:01:07.043Z,84.87
2022-10-13T07:03:34.958Z,84.78
2022-10-13T07:06:06.956Z,84.47
2022-10-13T07:08:35.709Z,84.29
2022-10-13T07:11:16.362Z,84.25
2022-10-13T07:13:46.674Z,83.98
2022-10-13T07:16:15.180Z,84.12
2022-10-13T07:18:43.174Z,84.01
2022-10-13T07:21:10.809Z,83.91
2022-10-13T07:23:38.441Z,83.87
2022-10-13T07:26:17.512Z,83.94
2022-10-13T07:28:46.247Z,83.79
2022-10-13T07:31:17.536Z,83.94
2022-10-13T07:33:48.469Z,84.13
2022-10-13T07:36:16.487Z,84.01
2022-10-13T07:38:44.151Z,83.88
2022-10-13T07:41:13.170Z,83.72
2022-10-13T07:43:41.508Z,83.60
2022-10-13T07:46:10.137Z,83.45
2022-10-13T07:48:37.905Z,83.45
2022-10-13T07:51:13.840Z,83.47
2022-10-13T07:53:43.900Z,83.30
2022-10-13T07:56:13.471Z,83.35
2022-10-13T07:58:46.656Z,83.23
2022-10-13T08:01:15.521Z,83.35
2022-10-13T08:03:47.184Z,83.16
2022-10-13T08:06:18.693Z,83.05
2022-10-13T08:08:46.879Z,82.92
2022-10-13T08:11:17.125Z,82.75
2022-10-13T08:13:52.241Z,82.61
2022-10-13T08:16:20.723Z,82.24
2022-10-13T08:18:49.327Z,82.19
2022-10-13T08:24:12.327Z,81.79
2022-10-13T08:26:40.702Z,81.50
2022-10-13T08:29:24.373Z,81.22
2022-10-13T08:31:54.364Z,80.92
2022-10-13T08:34:24.060Z,80.46
2022-10-13T08:36:54.499Z,80.21
2022-10-13T08:39:23.917Z,79.92
2022-10-13T08:41:51.667Z,79.72
2022-10-13T08:47:39.109Z,79.19
2022-10-13T08:50:16.212Z,79.05
2022-10-13T08:52:49.443Z,78.57
2022-10-13T08:55:53.136Z,78.58
2022-10-13T08:58:26.989Z,78.25
2022-10-13T09:01:19.816Z,78.17
2022-10-13T09:03:54.602Z,77.80
2022-10-13T09:06:33.258Z,77.82
2022-10-13T09:09:07.433Z,77.33
2022-10-13T09:11:44.010Z,77.30
2022-10-13T09:14:20.125Z,76.98
2022-10-13T09:16:47.993Z,76.99
2022-10-13T09:19:37.498Z,76.96
2022-10-13T09:22:29.411Z,76.70
2022-10-13T09:25:11.287Z,76.51
2022-10-13T09:27:59.157Z,76.16
2022-10-13T09:30:37.758Z,76.17
2022-10-13T09:33:14.152Z,75.85
2022-10-13T09:35:45.489Z,75.65
2022-10-13T09:38:22.156Z,75.72
2022-10-13T09:41:11.664Z,75.32
2022-10-13T09:43:48.778Z,75.39
2022-10-13T09:46:27.033Z,75.52
2022-10-13T09:49:07.921Z,75.70
2022-10-13T09:51:46.119Z,75.89
2022-10-13T09:54:48.063Z,76.11
2022-10-13T09:57:18.804Z,76.08
2022-10-13T10:00:13.781Z,76.31
2022-10-13T10:02:56.672Z,76.68
2022-10-13T10:05:45.808Z,77.06
2022-10-13T10:08:28.959Z,77.27
2022-10-13T10:11:04.396Z,77.33
2022-10-13T10:13:32.287Z,77.54
2022-10-13T10:16:31.022Z,77.50
2022-10-13T10:19:07.191Z,77.71
2022-10-13T10:21:37.933Z,77.75
2022-10-13T10:24:17.854Z,77.83
2022-10-13T10:27:08.528Z,78.00
2022-10-13T10:29:58.747Z,78.11
2022-10-13T10:32:31.968Z,78.41
2022-10-13T10:35:05.798Z,78.18
2022-10-13T10:38:04.565Z,78.29
2022-10-13T10:40:57.440Z,78.25
2022-10-13T10:44:03.622Z,78.22
2022-10-13T10:46:37.064Z,78.02
2022-10-13T10:49:24.117Z,78.17
2022-10-13T10:51:51.994Z,78.12
2022-10-13T10:54:19.561Z,78.22
2022-10-13T10:56:56.134Z,78.29
2022-10-13T10:59:32.872Z,78.44
2022-10-13T11:02:09.416Z,78.12
2022-10-13T11:04:45.869Z,78.22
2022-10-13T11:07:15.357Z,78.05
2022-10-13T11:09:42.888Z,78.01
2022-10-13T11:12:22.778Z,77.81
2022-10-13T11:15:13.989Z,77.76
2022-10-13T11:17:42.507Z,77.71
2022-10-13T11:20:36.155Z,77.89
2022-10-13T11:23:03.777Z,77.84
2022-10-13T11:25:42.347Z,77.97
2022-10-13T11:28:22.450Z,77.86
2022-10-13T11:30:56.249Z,77.92
2022-10-13T11:33:52.474Z,77.97
2022-10-13T11:36:40.598Z,77.70
2022-10-13T11:42:26.425Z,77.36
2022-10-13T11:45:22.644Z,77.13
2022-10-13T11:47:59.368Z,77.05
2022-10-13T11:51:16.242Z,76.79
2022-10-13T11:53:56.151Z,76.37
2022-10-13T11:56:39.689Z,76.38
2022-10-13T11:59:24.560Z,76.14
2022-10-13T12:02:00.148Z,76.00
2022-10-13T12:04:29.757Z,75.90
2022-10-13T12:07:09.838Z,75.93
2022-10-13T12:09:48.471Z,75.60
2022-10-13T12:12:18.818Z,75.83
2022-10-13T12:14:51.670Z,75.79
2022-10-13T12:17:28.702Z,75.68
2022-10-13T12:19:58.907Z,75.53
2022-10-13T12:22:26.879Z,75.59
2022-10-13T12:25:19.592Z,75.46
2022-10-13T12:27:52.583Z,75.12
2022-10-13T12:30:30.752Z,75.17
2022-10-13T12:33:01.434Z,75.08
2022-10-13T12:35:38.054Z,75.06
2022-10-13T12:38:14.616Z,74.79
2022-10-13T12:40:42.376Z,74.86
2022-10-13T12:43:17.286Z,74.83
2022-10-13T12:45:45.487Z,74.68
2022-10-13T12:48:33.733Z,74.81
2022-10-13T12:51:21.748Z,74.67
2022-10-13T12:53:49.792Z,74.20
2022-10-13T12:56:29.439Z,74.33
2022-10-13T12:58:57.837Z,73.80
2022-10-13T13:01:31.969Z,74.00
2022-10-13T13:04:24.250Z,73.27
2022-10-13T13:06:56.429Z,73.32
2022-10-13T13:09:26.790Z,73.32
2022-10-13T13:12:09.808Z,73.23
2022-10-13T13:14:45.900Z,73.09
2022-10-13T13:17:15.459Z,73.25
2022-10-13T13:19:50.399Z,73.43
2022-10-13T13:22:18.444Z,73.64
2022-10-13T13:24:47.236Z,73.70
2022-10-13T13:27:42.066Z,73.89
2022-10-13T13:30:14.676Z,74.11
2022-10-13T13:32:42.370Z,74.17
2022-10-13T13:35:10.868Z,74.24
2022-10-13T13:37:41.245Z,74.40
2022-10-13T13:40:16.283Z,74.44
2022-10-13T13:42:43.918Z,74.52
2022-10-13T13:45:19.293Z,74.57
2022-10-13T13:47:48.565Z,74.53
2022-10-13T13:50:23.401Z,74.76
2022-10-13T13:52:51.064Z,74.93
2022-10-13T13:55:19.511Z,74.99
2022-10-13T13:57:47.641Z,75.07
2022-10-13T14:00:16.990Z,75.29
2022-10-13T14:02:45.490Z,75.23
2022-10-13T14:05:13.635Z,75.13
2022-10-13T14:07:41.716Z,75.16
2022-10-13T14:10:11.390Z,75.20
2022-10-13T14:12:39.620Z,75.23
2022-10-13T14:15:08.139Z,75.45
2022-10-13T14:17:38.340Z,75.55
2022-10-13T14:20:06.713Z,75.75
2022-10-13T14:22:34.355Z,75.77
2022-10-13T14:25:02.153Z,75.80
2022-10-13T14:27:30.035Z,75.86
2022-10-13T14:29:57.979Z,75.93
2022-10-13T14:32:25.646Z,76.09
2022-10-13T14:34:53.329Z,76.26
2022-10-13T14:37:23.173Z,76.42
2022-10-13T14:39:51.865Z,76.63
2022-10-13T14:42:19.554Z,76.90
2022-10-13T14:44:47.213Z,77.11
2022-10-13T14:47:14.878Z,77.22
2022-10-13T14:49:44.202Z,77.32
2022-10-13T14:52:11.921Z,77.59
2022-10-13T14:54:43.899Z,77.93
2022-10-13T14:57:16.624Z,77.98
2022-10-13T14:59:44.555Z,78.12
2022-10-13T15:02:12.891Z,78.07
2022-10-13T15:04:40.926Z,78.13
2022-10-13T15:07:08.793Z,78.35
2022-10-13T15:09:52.739Z,78.48
2022-10-13T15:12:24.327Z,78.61
2022-10-13T15:14:51.932Z,78.70
2022-10-13T15:17:19.597Z,78.94
2022-10-13T15:19:47.306Z,79.20
2022-10-13T15:22:15.035Z,79.34
2022-10-13T15:24:43.421Z,79.45
2022-10-13T15:27:11.055Z,79.56
2022-10-13T15:29:38.779Z,79.64
2022-10-13T15:32:12.424Z,79.80
2022-10-13T15:34:43.113Z,80.13
2022-10-13T15:37:10.734Z,80.13
2022-10-13T15:39:38.931Z,80.20
2022-10-13T15:42:06.624Z,80.34
2022-10-13T15:44:57.373Z,80.46
2022-10-13T15:47:22.070Z,80.71
2022-10-13T15:49:49.673Z,80.93
2022-10-13T15:52:17.481Z,80.99
2022-10-13T15:54:45.276Z,81.08
2022-10-13T15:57:12.941Z,81.19
2022-10-13T15:59:40.559Z,81.23
2022-10-13T16:02:08.328Z,81.38
2022-10-13T16:04:37.605Z,81.67
2022-10-13T16:07:06.037Z,81.87
2022-10-13T16:09:33.714Z,81.88
2022-10-13T16:12:01.328Z,81.98
2022-10-13T16:14:28.972Z,82.09
2022-10-13T16:16:58.739Z,82.30
2022-10-13T16:19:26.426Z,82.41
2022-10-13T16:21:54.214Z,82.58
2022-10-13T16:24:21.852Z,82.67
2022-10-13T16:26:49.558Z,82.69
2022-10-13T16:29:17.255Z,82.89
2022-10-13T16:31:46.569Z,83.00
2022-10-13T16:34:14.188Z,83.18
2022-10-13T16:36:41.796Z,83.25
2022-10-13T16:39:09.453Z,83.24
2022-10-13T16:41:37.206Z,83.27
2022-10-13T16:44:04.847Z,83.45
2022-10-13T16:46:34.312Z,83.46
2022-10-13T16:49:02.199Z,83.65
2022-10-13T16:51:30.222Z,83.63
2022-10-13T16:54:03.856Z,83.69
2022-10-13T16:56:32.764Z,83.82
2022-10-13T16:59:02.643Z,83.89
2022-10-13T17:01:31.255Z,84.16
2022-10-13T17:03:59.828Z,84.40
2022-10-13T17:06:29.617Z,84.50
2022-10-13T17:09:03.993Z,84.59
2022-10-13T17:11:33.400Z,85.00
2022-10-13T17:14:02.113Z,85.02
2022-10-13T17:16:30.242Z,85.08
2022-10-13T17:18:57.950Z,85.21
2022-10-13T17:21:25.704Z,85.43
2022-10-13T17:23:55.551Z,85.54
2022-10-13T17:26:23.919Z,85.70
2022-10-13T17:28:51.712Z,85.88
2022-10-13T17:31:22.414Z,86.21
2022-10-13T17:33:51.400Z,86.48
2022-10-13T17:36:28.181Z,86.55
2022-10-13T17:38:57.599Z,87.06
2022-10-13T17:41:25.736Z,87.09
2022-10-13T17:43:53.924Z,87.06
2022-10-13T17:46:36.347Z,87.49
2022-10-13T17:49:06.016Z,87.76
2022-10-13T17:51:33.811Z,87.96
2022-10-13T17:54:01.989Z,88.15
2022-10-13T17:56:30.564Z,88.22
2022-10-13T17:58:58.547Z,88.37
2022-10-13T18:01:35.857Z,88.50
2022-10-13T18:04:09.506Z,89.03
2022-10-13T18:06:42.414Z,89.08
2022-10-13T18:09:15.448Z,88.99
2022-10-13T18:11:49.775Z,89.08
2022-10-13T18:14:19.088Z,89.10
2022-10-13T18:16:47.729Z,89.33
2022-10-13T18:19:15.577Z,89.52
2022-10-13T18:21:43.521Z,89.58
2022-10-13T18:24:12.563Z,89.70
2022-10-13T18:26:40.623Z,89.72
2022-10-13T18:29:10.081Z,89.96
2022-10-13T18:31:39.641Z,90.27
2022-10-13T18:34:11.461Z,92.03
2022-10-13T18:36:42.192Z,93.77
2022-10-13T18:39:09.828Z,92.78
2022-10-13T18:41:38.942Z,93.82
2022-10-13T18:44:07.588Z,93.51
2022-10-13T18:46:37.208Z,94.14
2022-10-13T18:49:12.301Z,93.53
2022-10-13T18:51:40.787Z,93.66
2022-10-13T18:54:09.219Z,93.50
2022-10-13T18:56:37.942Z,93.62
2022-10-13T18:59:08.032Z,93.47
2022-10-13T19:01:37.407Z,93.56
2022-10-13T19:04:06.428Z,93.85
2022-10-13T19:06:34.645Z,93.82
2022-10-13T19:09:05.269Z,94.20
2022-10-13T19:11:34.313Z,94.20
2022-10-13T19:14:02.785Z,94.14
2022-10-13T19:16:32.451Z,94.29
2022-10-13T19:19:00.595Z,94.22
2022-10-13T19:21:28.478Z,94.01
2022-10-13T19:23:59.261Z,93.98
2022-10-13T19:26:30.914Z,94.03
2022-10-13T19:29:02.812Z,94.00
2022-10-13T19:31:32.900Z,93.93
2022-10-13T19:34:01.203Z,93.88
2022-10-13T19:36:32.923Z,93.85
2022-10-13T19:39:01.711Z,93.97
2022-10-13T19:41:31.965Z,93.89
2022-10-13T19:44:01.398Z,93.81
2022-10-13T19:46:29.469Z,93.74
2022-10-13T19:48:57.245Z,93.86
2022-10-13T19:51:25.003Z,93.94
2022-10-13T19:53:53.033Z,93.96
2022-10-13T19:56:27.728Z,93.75
2022-10-13T19:58:56.034Z,93.90
2022-10-13T20:01:23.947Z,93.66
2022-10-13T20:03:52.432Z,93.65
2022-10-13T20:06:21.329Z,93.40
2022-10-13T20:08:50.044Z,93.40
2022-10-13T20:11:24.196Z,93.26
2022-10-13T20:13:53.250Z,93.37
2022-10-13T20:16:23.535Z,93.56
2022-10-13T20:18:56.842Z,93.54
2022-10-13T20:21:25.432Z,93.77
2022-10-13T20:23:53.524Z,93.70
2022-10-13T20:26:22.072Z,94.12
2022-10-13T20:28:51.591Z,93.95
2022-10-13T20:31:21.840Z,94.08
2022-10-13T20:33:54.108Z,94.28
2022-10-13T20:36:21.732Z,94.26
2022-10-13T20:38:50.263Z,94.24
2022-10-13T20:41:26.106Z,94.31
2022-10-13T20:43:55.447Z,94.49
2022-10-13T20:46:23.294Z,94.25
2022-10-13T20:49:09.814Z,94.25
2022-10-13T20:51:38.511Z,94.21
2022-10-13T20:54:06.401Z,94.29
2022-10-13T20:56:34.014Z,94.20
2022-10-13T20:59:07.974Z,94.22
2022-10-13T21:01:36.791Z,94.32
2022-10-13T21:04:05.892Z,94.02
2022-10-13T21:06:34.276Z,94.19
2022-10-13T21:09:01.976Z,94.09
2022-10-13T21:11:29.707Z,93.96
2022-10-13T21:13:58.483Z,93.97
2022-10-13T21:16:28.832Z,94.09
2022-10-13T21:18:57.881Z,94.05
2022-10-13T21:21:31.522Z,93.98
2022-10-13T21:24:01.083Z,94.03
2022-10-13T21:26:30.981Z,94.48
2022-10-13T21:28:59.465Z,93.89
2022-10-13T21:31:27.873Z,93.92
2022-10-13T21:33:55.773Z,93.68
2022-10-13T21:36:32.200Z,93.84
2022-10-13T21:39:02.467Z,93.55
2022-10-13T21:41:30.940Z,93.27
2022-10-13T21:43:58.856Z,93.12
2022-10-13T21:46:29.221Z,93.34
2022-10-13T21:48:59.411Z,92.97
2022-10-13T21:51:32.590Z,92.82
2022-10-13T21:54:06.957Z,92.65
2022-10-13T21:56:35.756Z,92.77
2022-10-13T21:59:04.620Z,92.72
2022-10-13T22:01:32.272Z,92.58
2022-10-13T22:04:01.970Z,92.58
2022-10-13T22:06:31.588Z,92.52
2022-10-13T22:09:01.110Z,92.40
2022-10-13T22:11:31.410Z,92.45
2022-10-13T22:14:00.027Z,92.44
2022-10-13T22:16:37.321Z,92.31
2022-10-13T22:19:05.032Z,92.42
2022-10-13T22:21:35.913Z,92.25
2022-10-13T22:24:07.013Z,92.21
2022-10-13T22:26:36.755Z,92.33
2022-10-13T22:29:07.163Z,92.26
2022-10-13T22:31:35.817Z,92.29
2022-10-13T22:34:04.150Z,92.08
2022-10-13T22:36:32.697Z,91.96
2022-10-13T22:39:03.968Z,91.97
2022-10-13T22:41:33.141Z,91.90
2022-10-13T22:44:01.884Z,91.88
2022-10-13T22:46:36.029Z,91.86
2022-10-13T22:49:04.306Z,91.68
2022-10-13T22:51:33.677Z,91.75
2022-10-13T22:54:02.195Z,91.76
2022-10-13T22:56:32.830Z,91.71
2022-10-13T22:59:07.114Z,91.57
2022-10-13T23:01:34.964Z,91.61
2022-10-13T23:04:02.867Z,91.57
2022-10-13T23:06:32.590Z,91.55
2022-10-13T23:09:06.279Z,91.67
2022-10-13T23:11:35.071Z,91.64
2022-10-13T23:14:03.398Z,91.64
2022-10-13T23:16:31.096Z,91.64
2022-10-13T23:18:58.757Z,91.66
2022-10-13T23:21:29.749Z,91.59
2022-10-13T23:24:00.037Z,91.21
2022-10-13T23:26:28.558Z,91.39
2022-10-13T23:28:57.587Z,91.35
2022-10-13T23:31:26.258Z,91.35
2022-10-13T23:33:54.358Z,91.28
2022-10-13T23:36:26.551Z,91.26
2022-10-13T23:39:12.574Z,91.40
2022-10-13T23:41:40.336Z,91.37
2022-10-13T23:44:07.962Z,91.40
2022-10-13T23:46:35.636Z,91.27
2022-10-13T23:49:03.290Z,91.25
2022-10-13T23:51:31.000Z,91.30
2022-10-13T23:53:59.819Z,91.37
2022-10-13T23:56:27.470Z,91.44
2022-10-13T23:58:55.103Z,91.44
